createdAt,value
2022-11-29T00:00:06.151Z,41.60
2022-11-29T00:01:06.210Z,37.40
2022-11-29T00:02:06.329Z,34.60
2022-11-29T00:03:06.389Z,35.00
2022-11-29T00:04:06.358Z,40.40
2022-11-29T00:05:06.362Z,37.40
2022-11-29T00:06:06.500Z,39.10
2022-11-29T00:07:06.508Z,37.00
2022-11-29T00:08:06.238Z,41.30
2022-11-29T00:09:06.612Z,40.30
2022-11-29T00:10:06.327Z,38.90
2022-11-29T00:11:06.737Z,34.20
2022-11-29T00:12:06.197Z,36.00
2022-11-29T00:13:06.765Z,33.60
2022-11-29T00:14:06.138Z,37.20
2022-11-29T00:15:06.828Z,36.00
2022-11-29T00:16:06.155Z,32.80
2022-11-29T00:17:06.230Z,36.50
2022-11-29T00:18:06.256Z,33.70
2022-11-29T00:19:07.006Z,33.20
2022-11-29T00:20:06.896Z,32.70
2022-11-29T00:21:07.084Z,36.00
2022-11-29T00:22:06.226Z,41.80
2022-11-29T00:23:06.617Z,36.10
2022-11-29T00:24:07.033Z,36.80
2022-11-29T00:25:06.937Z,34.40
2022-11-29T00:26:06.834Z,33.30
2022-11-29T00:27:06.994Z,34.90
2022-11-29T00:28:06.897Z,34.50
2022-11-29T00:29:06.801Z,33.00
2022-11-29T00:30:06.961Z,40.10
2022-11-29T00:31:06.907Z,39.30
2022-11-29T00:32:06.765Z,38.20
2022-11-29T00:33:06.062Z,40.40
2022-11-29T00:34:05.933Z,35.10
2022-11-29T00:35:09.649Z,38.40
2022-11-29T00:36:05.952Z,35.90
2022-11-29T00:37:05.922Z,38.90
2022-11-29T00:38:05.953Z,36.90
2022-11-29T00:39:05.962Z,42.40
2022-11-29T00:40:06.114Z,39.30
2022-11-29T00:41:06.132Z,36.20
2022-11-29T00:42:06.130Z,37.30
2022-11-29T00:43:05.962Z,35.10
2022-11-29T00:44:05.940Z,35.40
2022-11-29T00:45:05.951Z,38.50
2022-11-29T00:46:06.001Z,40.80
2022-11-29T00:47:05.959Z,36.70
2022-11-29T00:48:06.093Z,34.50
2022-11-29T00:49:05.860Z,36.00
2022-11-29T00:50:07.287Z,40.90
2022-11-29T00:51:05.821Z,38.80
2022-11-29T00:52:06.268Z,36.70
2022-11-29T00:53:05.820Z,35.90
2022-11-29T00:54:05.799Z,32.50
2022-11-29T00:55:05.798Z,37.80
2022-11-29T00:56:05.809Z,41.30
2022-11-29T00:57:05.830Z,40.30
2022-11-29T00:58:05.829Z,37.60
2022-11-29T00:59:05.758Z,39.20
2022-11-29T01:00:05.838Z,39.40
2022-11-29T01:01:05.883Z,40.30
2022-11-29T01:02:05.939Z,37.60
2022-11-29T01:03:05.865Z,43.90
2022-11-29T01:04:05.909Z,39.10
2022-11-29T01:05:05.776Z,42.00
2022-11-29T01:06:05.877Z,44.80
2022-11-29T01:07:05.965Z,43.50
2022-11-29T01:08:05.897Z,47.50
2022-11-29T01:09:05.914Z,44.50
2022-11-29T01:10:05.910Z,44.10
2022-11-29T01:11:05.916Z,43.30
2022-11-29T01:12:05.763Z,46.30
2022-11-29T01:13:05.732Z,45.70
2022-11-29T01:14:05.732Z,43.00
2022-11-29T01:15:05.671Z,47.20
2022-11-29T01:16:05.752Z,45.80
2022-11-29T01:17:05.979Z,51.90
2022-11-29T01:18:05.754Z,44.40
2022-11-29T01:19:05.974Z,48.60
2022-11-29T01:20:06.013Z,46.30
2022-11-29T01:21:05.982Z,46.10
2022-11-29T01:22:05.992Z,47.90
2022-11-29T01:23:05.623Z,46.50
2022-11-29T01:24:06.218Z,43.60
2022-11-29T01:25:06.222Z,47.10
2022-11-29T01:26:05.701Z,44.50
2022-11-29T01:27:05.822Z,46.10
2022-11-29T01:28:06.232Z,46.00
2022-11-29T01:29:05.622Z,48.40
2022-11-29T01:30:05.832Z,47.40
2022-11-29T01:31:06.311Z,48.10
2022-11-29T01:32:06.261Z,50.30
2022-11-29T01:33:06.280Z,48.30
2022-11-29T01:34:05.514Z,48.50
2022-11-29T01:35:05.534Z,53.40
2022-11-29T01:36:05.524Z,55.20
2022-11-29T01:37:05.533Z,48.90
2022-11-29T01:38:05.563Z,52.50
2022-11-29T01:39:06.939Z,50.90
2022-11-29T01:40:05.493Z,54.60
2022-11-29T01:41:05.509Z,48.60
2022-11-29T01:42:05.509Z,50.30
2022-11-29T01:43:05.518Z,48.40
2022-11-29T01:44:05.527Z,50.10
2022-11-29T01:45:05.529Z,51.60
2022-11-29T01:46:05.599Z,49.50
2022-11-29T01:47:05.557Z,53.30
2022-11-29T01:48:05.487Z,56.30
2022-11-29T01:49:05.538Z,52.60
2022-11-29T01:50:05.409Z,52.90
2022-11-29T01:51:05.407Z,55.10
2022-11-29T01:52:05.406Z,56.50
2022-11-29T01:53:05.589Z,53.20
2022-11-29T01:54:05.615Z,49.30
2022-11-29T01:55:05.616Z,57.60
2022-11-29T01:56:05.386Z,47.60
2022-11-29T01:57:05.430Z,59.20
2022-11-29T01:58:05.377Z,54.40
2022-11-29T01:59:05.364Z,64.60
2022-11-29T02:00:05.482Z,60.50
2022-11-29T02:01:05.470Z,56.50
2022-11-29T02:02:05.515Z,55.30
2022-11-29T02:03:05.471Z,55.20
2022-11-29T02:04:05.465Z,56.80
2022-11-29T02:05:05.347Z,53.30
2022-11-29T02:06:05.489Z,60.80
2022-11-29T02:07:05.658Z,49.70
2022-11-29T02:08:05.453Z,56.20
2022-11-29T02:09:05.283Z,57.20
2022-11-29T02:10:05.922Z,62.00
2022-11-29T02:11:06.044Z,63.80
2022-11-29T02:12:05.513Z,68.00
2022-11-29T02:13:05.956Z,57.20
2022-11-29T02:14:05.982Z,59.20
2022-11-29T02:15:05.572Z,65.60
2022-11-29T02:16:05.982Z,67.40
2022-11-29T02:17:05.234Z,59.30
2022-11-29T02:18:05.481Z,67.30
2022-11-29T02:19:05.972Z,66.80
2022-11-29T02:20:06.058Z,68.40
2022-11-29T02:21:05.208Z,59.20
2022-11-29T02:22:05.782Z,65.20
2022-11-29T02:23:05.999Z,57.70
2022-11-29T02:24:06.010Z,68.40
2022-11-29T02:25:05.210Z,66.30
2022-11-29T02:26:06.019Z,64.80
2022-11-29T02:27:06.020Z,60.00
2022-11-29T02:28:05.530Z,64.20
2022-11-29T02:29:05.239Z,73.00
2022-11-29T02:30:06.610Z,61.70
2022-11-29T02:31:05.280Z,65.90
2022-11-29T02:32:05.478Z,63.70
2022-11-29T02:33:05.237Z,64.80
2022-11-29T02:34:05.467Z,72.80
2022-11-29T02:35:05.546Z,67.40
2022-11-29T02:36:05.477Z,66.50
2022-11-29T02:37:11.281Z,70.80
2022-11-29T02:38:05.507Z,76.20
2022-11-29T02:39:05.755Z,78.70
2022-11-29T02:40:05.106Z,73.40
2022-11-29T02:41:05.115Z,73.00
2022-11-29T02:42:05.057Z,74.00
2022-11-29T02:43:05.106Z,77.30
2022-11-29T02:44:05.037Z,72.90
2022-11-29T02:45:05.128Z,76.50
2022-11-29T02:46:05.374Z,72.90
2022-11-29T02:47:05.336Z,70.40
2022-11-29T02:48:05.366Z,70.80
2022-11-29T02:49:05.005Z,73.00
2022-11-29T02:50:05.006Z,73.30
2022-11-29T02:51:04.994Z,69.70
2022-11-29T02:52:04.985Z,68.00
2022-11-29T02:53:05.182Z,65.20
2022-11-29T02:54:04.979Z,73.30
2022-11-29T02:55:04.974Z,64.50
2022-11-29T02:56:04.994Z,73.60
2022-11-29T02:57:04.979Z,73.30
2022-11-29T02:58:05.390Z,71.40
2022-11-29T02:59:05.053Z,70.70
2022-11-29T03:00:04.981Z,68.20
2022-11-29T03:01:04.972Z,71.40
2022-11-29T03:02:05.298Z,71.20
2022-11-29T03:03:05.246Z,67.20
2022-11-29T03:04:05.251Z,80.10
2022-11-29T03:05:05.051Z,82.70
2022-11-29T03:06:04.880Z,79.50
2022-11-29T03:07:04.903Z,76.20
2022-11-29T03:08:04.870Z,77.90
2022-11-29T03:09:04.892Z,71.00
2022-11-29T03:10:04.897Z,70.10
2022-11-29T03:11:04.998Z,69.20
2022-11-29T03:12:04.840Z,72.10
2022-11-29T03:13:04.961Z,69.80
2022-11-29T03:14:05.109Z,70.90
2022-11-29T03:15:04.990Z,70.70
2022-11-29T03:16:04.848Z,74.00
2022-11-29T03:17:04.832Z,69.60
2022-11-29T03:18:04.829Z,67.10
2022-11-29T03:19:04.836Z,70.20
2022-11-29T03:20:04.823Z,69.30
2022-11-29T03:21:04.797Z,79.60
2022-11-29T03:22:04.798Z,71.90
2022-11-29T03:23:04.780Z,76.10
2022-11-29T03:24:04.778Z,75.60
2022-11-29T03:25:04.781Z,73.40
2022-11-29T03:26:04.757Z,77.50
2022-11-29T03:27:04.752Z,73.40
2022-11-29T03:28:04.746Z,84.90
2022-11-29T03:29:04.737Z,82.40
2022-11-29T03:30:04.766Z,79.00
2022-11-29T03:31:04.749Z,76.80
2022-11-29T03:32:05.027Z,74.90
2022-11-29T03:33:04.696Z,77.20
2022-11-29T03:34:04.768Z,69.90
2022-11-29T03:35:04.685Z,69.80
2022-11-29T03:36:05.335Z,74.90
2022-11-29T03:37:04.676Z,75.60
2022-11-29T03:38:04.673Z,73.30
2022-11-29T03:39:04.674Z,64.40
2022-11-29T03:40:05.304Z,59.30
2022-11-29T03:41:05.317Z,58.90
2022-11-29T03:42:05.324Z,62.10
2022-11-29T03:43:04.653Z,62.20
2022-11-29T03:44:04.656Z,60.30
2022-11-29T03:45:04.753Z,53.40
2022-11-29T03:46:04.633Z,59.10
2022-11-29T03:47:04.613Z,52.70
2022-11-29T03:48:04.647Z,53.50
2022-11-29T03:49:04.626Z,50.20
2022-11-29T03:50:04.593Z,46.80
2022-11-29T03:51:04.751Z,48.60
2022-11-29T03:52:04.581Z,49.90
2022-11-29T03:53:04.970Z,54.40
2022-11-29T03:54:05.194Z,50.50
2022-11-29T03:55:04.604Z,51.70
2022-11-29T03:56:04.841Z,47.60
2022-11-29T03:57:05.191Z,45.90
2022-11-29T03:58:05.201Z,47.60
2022-11-29T03:59:05.421Z,47.10
2022-11-29T04:00:04.830Z,47.20
2022-11-29T04:01:04.530Z,45.50
2022-11-29T04:02:05.430Z,48.00
2022-11-29T04:03:05.436Z,47.50
2022-11-29T04:04:05.359Z,41.50
2022-11-29T04:05:05.521Z,41.00
2022-11-29T04:06:05.428Z,41.40
2022-11-29T04:07:05.328Z,42.80
2022-11-29T04:08:05.498Z,42.00
2022-11-29T04:09:04.697Z,39.20
2022-11-29T04:10:05.297Z,42.20
2022-11-29T04:11:05.458Z,37.90
2022-11-29T04:12:04.460Z,41.90
2022-11-29T04:13:04.428Z,38.90
2022-11-29T04:14:04.447Z,39.10
2022-11-29T04:15:04.428Z,37.90
2022-11-29T04:16:04.445Z,38.80
2022-11-29T04:17:04.396Z,36.60
2022-11-29T04:18:04.435Z,35.40
2022-11-29T04:19:04.395Z,36.80
2022-11-29T04:20:04.479Z,36.90
2022-11-29T04:21:04.375Z,41.30
2022-11-29T04:22:04.456Z,38.60
2022-11-29T04:23:04.404Z,46.40
2022-11-29T04:24:04.476Z,39.10
2022-11-29T04:25:04.624Z,45.90
2022-11-29T04:26:04.644Z,44.20
2022-11-29T04:27:04.427Z,45.20
2022-11-29T04:28:04.644Z,39.90
2022-11-29T04:29:04.452Z,41.00
2022-11-29T04:30:04.807Z,41.80
2022-11-29T04:31:04.349Z,42.40
2022-11-29T04:32:04.875Z,42.90
2022-11-29T04:33:04.884Z,38.30
2022-11-29T04:34:04.897Z,45.60
2022-11-29T04:35:05.123Z,45.80
2022-11-29T04:36:05.113Z,51.20
2022-11-29T04:37:04.302Z,43.30
2022-11-29T04:38:05.131Z,45.20
2022-11-29T04:39:04.724Z,44.60
2022-11-29T04:40:05.133Z,48.80
2022-11-29T04:41:04.531Z,46.30
2022-11-29T04:42:04.242Z,52.50
2022-11-29T04:43:05.203Z,48.10
2022-11-29T04:44:05.102Z,60.20
2022-11-29T04:45:04.350Z,58.10
2022-11-29T04:46:05.221Z,68.20
2022-11-29T04:47:05.070Z,60.10
2022-11-29T04:48:05.232Z,83.10
2022-11-29T04:49:05.181Z,80.20
2022-11-29T04:50:05.042Z,58.90
2022-11-29T04:51:04.182Z,80.80
2022-11-29T04:52:05.100Z,82.30
2022-11-29T04:53:05.010Z,92.30
2022-11-29T04:54:05.170Z,67.20
2022-11-29T04:55:05.070Z,73.70
2022-11-29T04:56:04.221Z,70.80
2022-11-29T04:57:04.179Z,61.10
2022-11-29T04:58:04.441Z,59.40
2022-11-29T04:59:04.176Z,71.80
2022-11-29T05:00:04.269Z,73.30
2022-11-29T05:01:04.260Z,84.10
2022-11-29T05:02:04.238Z,79.10
2022-11-29T05:03:04.121Z,91.20
2022-11-29T05:04:04.088Z,91.00
2022-11-29T05:05:04.096Z,77.90
2022-11-29T05:06:04.069Z,78.30
2022-11-29T05:07:04.068Z,94.10
2022-11-29T05:08:04.066Z,92.60
2022-11-29T05:09:04.048Z,93.60
2022-11-29T05:10:04.066Z,86.00
2022-11-29T05:11:04.035Z,90.80
2022-11-29T05:12:04.034Z,81.90
2022-11-29T05:13:04.025Z,97.10
2022-11-29T05:14:04.016Z,86.40
2022-11-29T05:15:04.036Z,94.40
2022-11-29T05:16:04.048Z,81.70
2022-11-29T05:17:04.002Z,80.20
2022-11-29T05:18:03.993Z,78.30
2022-11-29T05:20:30.119Z,76.70
2022-11-29T05:21:29.944Z,79.90
2022-11-29T05:22:29.929Z,78.60
2022-11-29T05:23:29.938Z,80.50
2022-11-29T05:24:29.918Z,75.70
2022-11-29T05:25:29.932Z,82.40
2022-11-29T05:26:29.904Z,68.60
2022-11-29T05:27:29.899Z,67.70
2022-11-29T05:28:29.897Z,72.60
2022-11-29T05:29:29.998Z,84.10
2022-11-29T05:30:30.427Z,75.20
2022-11-29T05:31:29.916Z,69.50
2022-11-29T05:32:29.868Z,74.10
2022-11-29T05:33:29.856Z,70.30
2022-11-29T05:34:34.934Z,75.30
2022-11-29T05:35:30.522Z,70.80
2022-11-29T05:36:29.856Z,73.70
2022-11-29T05:37:29.855Z,68.30
2022-11-29T05:38:29.852Z,66.40
2022-11-29T05:39:29.840Z,64.30
2022-11-29T05:40:29.864Z,73.40
2022-11-29T05:41:29.804Z,66.70
2022-11-29T05:42:30.083Z,65.40
2022-11-29T05:43:29.836Z,81.80
2022-11-29T05:44:30.105Z,73.70
2022-11-29T05:45:29.905Z,74.40
2022-11-29T05:46:30.017Z,75.20
2022-11-29T05:47:31.527Z,72.80
2022-11-29T05:48:29.764Z,71.80
2022-11-29T05:49:29.753Z,66.30
2022-11-29T05:50:29.761Z,69.30
2022-11-29T05:51:29.743Z,64.00
2022-11-29T05:52:29.732Z,64.90
2022-11-29T05:53:29.731Z,66.40
2022-11-29T05:54:29.714Z,67.10
2022-11-29T05:55:29.762Z,64.80
2022-11-29T05:56:30.382Z,66.10
2022-11-29T05:57:29.780Z,66.30
2022-11-29T05:58:30.789Z,69.50
2022-11-29T05:59:29.691Z,67.70
2022-11-29T06:00:29.715Z,62.90
2022-11-29T06:01:29.698Z,66.00
2022-11-29T06:02:29.717Z,66.20
2022-11-29T06:03:29.670Z,72.20
2022-11-29T06:04:29.649Z,67.60
2022-11-29T06:05:29.654Z,69.10
2022-11-29T06:06:29.660Z,67.40
2022-11-29T06:07:29.674Z,65.80
2022-11-29T06:08:29.892Z,73.50
2022-11-29T06:09:29.840Z,68.30
2022-11-29T06:10:29.788Z,67.10
2022-11-29T06:11:29.637Z,73.80
2022-11-29T06:12:29.598Z,68.80
2022-11-29T06:13:29.887Z,72.90
2022-11-29T06:14:29.590Z,71.40
2022-11-29T06:15:29.897Z,70.40
2022-11-29T06:16:29.766Z,84.80
2022-11-29T06:17:33.021Z,72.80
2022-11-29T06:18:29.576Z,78.90
2022-11-29T06:19:29.580Z,75.10
2022-11-29T06:20:29.546Z,80.80
2022-11-29T06:21:29.667Z,77.60
2022-11-29T06:22:29.536Z,70.70
2022-11-29T06:23:29.529Z,79.40
2022-11-29T06:24:29.980Z,85.50
2022-11-29T06:25:29.514Z,82.80
2022-11-29T06:26:29.514Z,74.80
2022-11-29T06:27:29.508Z,83.20
2022-11-29T06:28:29.495Z,77.20
2022-11-29T06:29:29.497Z,81.60
2022-11-29T06:30:29.544Z,71.00
2022-11-29T06:31:29.564Z,75.40
2022-11-29T06:32:29.469Z,74.90
2022-11-29T06:33:29.483Z,71.60
2022-11-29T06:34:31.033Z,71.50
2022-11-29T06:35:29.454Z,74.90
2022-11-29T06:36:29.462Z,76.40
2022-11-29T06:37:29.445Z,80.10
2022-11-29T06:38:29.433Z,71.20
2022-11-29T06:39:29.431Z,75.70
2022-11-29T06:40:29.420Z,72.00
2022-11-29T06:41:29.430Z,71.50
2022-11-29T06:42:29.439Z,74.50
2022-11-29T06:43:29.508Z,72.60
2022-11-29T06:44:29.391Z,74.90
2022-11-29T06:45:29.419Z,84.40
2022-11-29T06:46:29.445Z,81.40
2022-11-29T06:47:29.384Z,78.30
2022-11-29T06:48:29.518Z,75.50
2022-11-29T06:49:29.520Z,83.50
2022-11-29T06:50:29.389Z,73.10
2022-11-29T06:51:29.359Z,85.90
2022-11-29T06:52:29.650Z,86.60
2022-11-29T06:53:29.339Z,77.50
2022-11-29T06:54:29.348Z,83.20
2022-11-29T06:55:29.319Z,72.20
2022-11-29T06:56:29.330Z,81.00
2022-11-29T06:57:29.578Z,76.60
2022-11-29T06:58:34.429Z,77.30
2022-11-29T06:59:29.596Z,80.10
2022-11-29T07:00:29.371Z,80.40
2022-11-29T07:01:29.367Z,84.70
2022-11-29T07:02:29.652Z,88.10
2022-11-29T07:03:29.264Z,87.50
2022-11-29T07:04:29.266Z,77.80
2022-11-29T07:05:29.837Z,78.10
2022-11-29T07:06:29.265Z,80.30
2022-11-29T07:07:29.304Z,82.00
2022-11-29T07:08:29.465Z,87.70
2022-11-29T07:09:29.367Z,79.60
2022-11-29T07:10:29.414Z,76.10
2022-11-29T07:11:29.253Z,90.60
2022-11-29T07:12:29.264Z,78.90
2022-11-29T07:13:29.689Z,72.90
2022-11-29T07:14:29.484Z,68.90
2022-11-29T07:15:29.514Z,71.50
2022-11-29T07:16:29.404Z,75.30
2022-11-29T07:17:29.333Z,72.90
2022-11-29T07:18:29.307Z,78.90
2022-11-29T07:19:29.313Z,70.50
2022-11-29T07:20:29.524Z,74.70
2022-11-29T07:21:29.161Z,74.00
2022-11-29T07:22:29.334Z,74.70
2022-11-29T07:23:29.712Z,80.30
2022-11-29T07:24:29.973Z,75.10
2022-11-29T07:25:29.352Z,74.10
2022-11-29T07:26:29.980Z,75.90
2022-11-29T07:27:29.400Z,81.60
2022-11-29T07:28:29.783Z,78.80
2022-11-29T07:29:29.809Z,80.30
2022-11-29T07:30:29.182Z,77.90
2022-11-29T07:31:29.224Z,91.30
2022-11-29T07:32:29.190Z,77.90
2022-11-29T07:33:29.209Z,79.20
2022-11-29T07:34:29.218Z,83.20
2022-11-29T07:35:29.089Z,78.70
2022-11-29T07:36:29.449Z,80.90
2022-11-29T07:37:29.080Z,94.40
2022-11-29T07:38:29.068Z,85.70
2022-11-29T07:39:29.042Z,88.60
2022-11-29T07:40:33.121Z,85.90
2022-11-29T07:41:29.068Z,88.30
2022-11-29T07:42:29.274Z,95.80
2022-11-29T07:43:29.278Z,78.00
2022-11-29T07:44:29.288Z,82.80
2022-11-29T07:45:29.080Z,80.60
2022-11-29T07:46:29.186Z,78.70
2022-11-29T07:47:34.092Z,75.00
2022-11-29T07:48:29.317Z,70.00
2022-11-29T07:49:29.329Z,69.20
2022-11-29T07:50:29.325Z,64.60
2022-11-29T07:51:29.328Z,70.50
2022-11-29T07:52:30.475Z,79.80
2022-11-29T07:53:29.548Z,69.50
2022-11-29T07:54:29.786Z,66.30
2022-11-29T07:55:29.352Z,59.40
2022-11-29T07:56:29.275Z,66.90
2022-11-29T07:57:29.796Z,65.70
2022-11-29T07:58:30.042Z,67.80
2022-11-29T07:59:29.404Z,65.50
2022-11-29T08:00:28.977Z,60.20
2022-11-29T08:01:29.411Z,54.10
2022-11-29T08:02:29.948Z,55.00
2022-11-29T08:03:29.776Z,58.00
2022-11-29T08:04:29.206Z,64.00
2022-11-29T08:05:29.844Z,60.70
2022-11-29T08:06:29.082Z,58.90
2022-11-29T08:07:28.921Z,63.20
2022-11-29T08:08:28.852Z,64.20
2022-11-29T08:09:28.874Z,59.20
2022-11-29T08:10:28.896Z,59.00
2022-11-29T08:11:28.830Z,61.60
2022-11-29T08:12:28.846Z,58.40
2022-11-29T08:13:28.813Z,52.70
2022-11-29T08:14:28.816Z,50.40
2022-11-29T08:15:28.802Z,55.60
2022-11-29T08:16:28.849Z,49.20
2022-11-29T08:17:28.884Z,46.40
2022-11-29T08:18:28.785Z,47.20
2022-11-29T08:19:28.903Z,50.40
2022-11-29T08:20:28.774Z,51.70
2022-11-29T08:21:28.760Z,49.70
2022-11-29T08:22:28.880Z,55.50
2022-11-29T08:23:28.742Z,69.20
2022-11-29T08:24:28.739Z,64.80
2022-11-29T08:25:28.961Z,64.30
2022-11-29T08:26:31.700Z,65.70
2022-11-29T08:27:28.959Z,53.70
2022-11-29T08:28:28.720Z,58.40
2022-11-29T08:29:28.699Z,58.70
2022-11-29T08:30:28.713Z,49.80
2022-11-29T08:31:28.719Z,51.40
2022-11-29T08:32:28.827Z,49.70
2022-11-29T08:33:29.208Z,50.00
2022-11-29T08:34:28.690Z,48.40
2022-11-29T08:35:29.048Z,44.70
2022-11-29T08:36:28.676Z,48.20
2022-11-29T08:37:28.676Z,50.60
2022-11-29T08:38:28.717Z,49.70
2022-11-29T08:39:28.645Z,51.70
2022-11-29T08:40:28.841Z,54.10
2022-11-29T08:41:28.865Z,50.10
2022-11-29T08:42:28.646Z,50.60
2022-11-29T08:43:28.615Z,48.80
2022-11-29T08:44:28.613Z,52.10
2022-11-29T08:45:28.951Z,56.10
2022-11-29T08:46:29.097Z,60.30
2022-11-29T08:47:29.145Z,52.90
2022-11-29T08:48:28.915Z,57.70
2022-11-29T08:49:28.604Z,55.80
2022-11-29T08:50:28.595Z,57.80
2022-11-29T08:51:28.561Z,51.60
2022-11-29T08:52:28.558Z,50.70
2022-11-29T08:53:28.773Z,48.50
2022-11-29T08:54:28.545Z,43.70
2022-11-29T08:55:28.542Z,49.60
2022-11-29T08:57:39.720Z,51.50
2022-11-29T08:58:28.534Z,54.20
2022-11-29T08:59:28.612Z,55.00
2022-11-29T09:00:28.512Z,55.10
2022-11-29T09:01:28.784Z,59.20
2022-11-29T09:02:28.612Z,56.80
2022-11-29T09:03:28.502Z,57.70
2022-11-29T09:04:28.492Z,54.30
2022-11-29T09:05:28.462Z,60.10
2022-11-29T09:06:28.461Z,66.10
2022-11-29T09:07:28.479Z,61.60
2022-11-29T09:08:29.022Z,65.20
2022-11-29T09:09:29.032Z,63.90
2022-11-29T09:10:28.451Z,62.60
2022-11-29T09:11:29.040Z,64.10
2022-11-29T09:12:28.429Z,65.70
2022-11-29T09:13:28.687Z,64.10
2022-11-29T09:14:28.410Z,67.60
2022-11-29T09:15:29.210Z,63.30
2022-11-29T09:16:28.433Z,65.70
2022-11-29T09:17:28.388Z,70.40
2022-11-29T09:18:28.399Z,61.70
2022-11-29T09:19:29.148Z,65.90
2022-11-29T09:20:28.584Z,73.60
2022-11-29T09:21:29.199Z,63.60
2022-11-29T09:22:29.318Z,68.60
2022-11-29T09:23:29.328Z,65.60
2022-11-29T09:24:28.356Z,62.40
2022-11-29T09:25:28.330Z,69.00
2022-11-29T09:26:28.337Z,63.90
2022-11-29T09:27:28.327Z,69.50
2022-11-29T09:28:28.348Z,62.40
2022-11-29T09:29:28.577Z,68.30
2022-11-29T09:30:28.548Z,59.80
2022-11-29T09:31:28.445Z,64.20
2022-11-29T09:32:28.556Z,63.50
2022-11-29T09:33:28.586Z,67.40
2022-11-29T09:34:28.375Z,58.30
2022-11-29T09:35:28.278Z,68.20
2022-11-29T09:36:29.344Z,61.50
2022-11-29T09:37:28.254Z,63.50
2022-11-29T09:38:28.274Z,62.80
2022-11-29T09:39:28.265Z,65.10
2022-11-29T09:40:28.246Z,59.80
2022-11-29T09:41:28.243Z,57.80
2022-11-29T09:42:28.635Z,60.40
2022-11-29T09:43:28.664Z,58.30
2022-11-29T09:44:28.223Z,62.10
2022-11-29T09:45:28.219Z,59.00
2022-11-29T09:46:28.242Z,65.40
2022-11-29T09:47:28.192Z,59.10
2022-11-29T09:48:28.208Z,57.70
2022-11-29T09:49:29.094Z,62.70
2022-11-29T09:50:28.475Z,66.50
2022-11-29T09:51:28.162Z,57.50
2022-11-29T09:52:28.231Z,62.10
2022-11-29T09:53:28.162Z,65.50
2022-11-29T09:54:28.235Z,57.90
2022-11-29T09:55:28.131Z,64.20
2022-11-29T09:56:28.131Z,54.60
2022-11-29T09:57:28.128Z,64.30
2022-11-29T09:58:28.192Z,59.20
2022-11-29T09:59:29.160Z,55.50
2022-11-29T10:00:28.108Z,54.90
2022-11-29T10:01:29.006Z,61.40
2022-11-29T10:02:29.155Z,59.80
2022-11-29T10:03:28.959Z,56.30
2022-11-29T10:04:28.921Z,64.90
2022-11-29T10:05:28.089Z,64.30
2022-11-29T10:06:28.069Z,61.20
2022-11-29T10:07:28.107Z,60.10
2022-11-29T10:08:28.067Z,62.20
2022-11-29T10:09:33.354Z,59.70
2022-11-29T10:10:28.038Z,47.90
2022-11-29T10:11:28.034Z,54.70
2022-11-29T10:12:28.105Z,47.00
2022-11-29T10:13:28.036Z,52.90
2022-11-29T10:14:28.036Z,55.10
2022-11-29T10:15:28.024Z,61.00
2022-11-29T10:16:28.089Z,49.60
2022-11-29T10:17:27.987Z,54.80
2022-11-29T10:18:27.985Z,80.80
2022-11-29T10:19:28.023Z,68.90
2022-11-29T10:20:27.974Z,61.60
2022-11-29T10:21:27.953Z,53.00
2022-11-29T10:22:27.955Z,57.10
2022-11-29T10:23:27.945Z,61.10
2022-11-29T10:24:27.965Z,58.30
2022-11-29T10:25:28.076Z,57.90
2022-11-29T10:26:33.565Z,59.70
2022-11-29T10:27:27.923Z,66.70
2022-11-29T10:28:27.913Z,64.30
2022-11-29T10:29:27.926Z,65.10
2022-11-29T10:30:27.989Z,62.50
2022-11-29T10:31:27.910Z,67.00
2022-11-29T10:32:27.963Z,68.50
2022-11-29T10:33:27.921Z,61.50
2022-11-29T10:34:27.935Z,67.70
2022-11-29T10:35:27.933Z,65.40
2022-11-29T10:36:27.942Z,77.40
2022-11-29T10:37:27.852Z,71.00
2022-11-29T10:38:31.767Z,69.00
2022-11-29T10:39:27.859Z,76.50
2022-11-29T10:40:28.131Z,68.80
2022-11-29T10:41:27.823Z,73.50
2022-11-29T10:42:27.840Z,79.90
2022-11-29T10:43:27.819Z,69.70
2022-11-29T10:44:27.826Z,78.90
2022-11-29T10:45:27.859Z,72.30
2022-11-29T10:46:28.048Z,72.60
2022-11-29T10:47:28.058Z,73.30
2022-11-29T10:48:27.781Z,71.10
2022-11-29T10:49:28.245Z,76.20
2022-11-29T10:50:27.778Z,78.00
2022-11-29T10:51:27.761Z,72.80
2022-11-29T10:52:27.772Z,66.50
2022-11-29T10:53:27.751Z,69.80
2022-11-29T10:54:27.758Z,79.50
2022-11-29T10:55:28.476Z,77.10
2022-11-29T10:56:27.869Z,73.50
2022-11-29T10:57:27.777Z,68.70
2022-11-29T10:58:28.861Z,67.00
2022-11-29T10:59:27.778Z,68.20
2022-11-29T11:00:27.716Z,63.30
2022-11-29T11:01:27.845Z,68.00
2022-11-29T11:02:27.727Z,60.20
2022-11-29T11:03:27.717Z,68.50
2022-11-29T11:04:27.905Z,68.10
2022-11-29T11:05:27.821Z,64.70
2022-11-29T11:06:27.714Z,60.40
2022-11-29T11:08:53.641Z,63.30
2022-11-29T11:09:53.654Z,61.90
2022-11-29T11:10:58.605Z,66.30
2022-11-29T11:11:53.618Z,83.80
2022-11-29T11:12:53.676Z,70.90
2022-11-29T11:13:53.678Z,66.00
2022-11-29T11:14:53.663Z,63.70
2022-11-29T11:15:53.689Z,70.20
2022-11-29T11:16:53.726Z,67.70
2022-11-29T11:17:53.866Z,69.60
2022-11-29T11:18:53.877Z,61.10
2022-11-29T11:19:53.626Z,64.90
2022-11-29T11:20:53.652Z,53.80
2022-11-29T11:21:53.688Z,58.40
2022-11-29T11:22:53.537Z,65.00
2022-11-29T11:23:53.706Z,66.30
2022-11-29T11:24:53.546Z,59.00
2022-11-29T11:25:53.717Z,68.00
2022-11-29T11:26:53.508Z,61.60
2022-11-29T11:27:53.486Z,50.50
2022-11-29T11:28:53.486Z,58.60
2022-11-29T11:29:53.488Z,62.50
2022-11-29T11:30:54.041Z,59.60
2022-11-29T11:31:54.172Z,60.90
2022-11-29T11:32:53.562Z,60.70
2022-11-29T11:33:53.515Z,70.30
2022-11-29T11:34:53.524Z,63.20
2022-11-29T11:35:53.434Z,69.50
2022-11-29T11:36:53.435Z,60.50
2022-11-29T11:37:54.204Z,59.30
2022-11-29T11:38:53.423Z,64.30
2022-11-29T11:39:53.857Z,62.00
2022-11-29T11:40:57.900Z,58.40
2022-11-29T11:41:53.413Z,64.80
2022-11-29T11:42:53.403Z,58.90
2022-11-29T11:43:53.383Z,61.20
2022-11-29T11:44:53.403Z,61.10
2022-11-29T11:45:53.397Z,65.10
2022-11-29T11:46:53.450Z,66.50
2022-11-29T11:47:53.451Z,51.90
2022-11-29T11:48:53.492Z,57.90
2022-11-29T11:49:53.352Z,62.30
2022-11-29T11:50:53.369Z,67.00
2022-11-29T11:51:53.332Z,61.60
2022-11-29T11:52:53.391Z,66.40
2022-11-29T11:53:53.503Z,60.30
2022-11-29T11:54:53.319Z,60.60
2022-11-29T11:55:53.509Z,55.40
2022-11-29T11:56:53.311Z,52.20
2022-11-29T11:57:53.320Z,56.30
2022-11-29T11:58:53.331Z,54.50
2022-11-29T11:59:53.277Z,55.00
2022-11-29T12:01:08.634Z,56.90
2022-11-29T12:01:53.360Z,59.20
2022-11-29T12:02:53.412Z,59.30
2022-11-29T12:03:53.381Z,56.30
2022-11-29T12:04:53.369Z,52.90
2022-11-29T12:05:53.256Z,49.90
2022-11-29T12:06:53.278Z,42.70
2022-11-29T12:08:07.791Z,44.60
2022-11-29T12:08:53.619Z,46.30
2022-11-29T12:09:53.619Z,44.60
2022-11-29T12:10:53.431Z,43.90
2022-11-29T12:11:53.421Z,45.10
2022-11-29T12:12:53.846Z,41.30
2022-11-29T12:13:53.247Z,48.60
2022-11-29T12:14:53.185Z,44.30
2022-11-29T12:15:53.197Z,41.60
2022-11-29T12:16:53.166Z,51.50
2022-11-29T12:17:53.476Z,48.60
2022-11-29T12:18:53.485Z,43.70
2022-11-29T12:19:53.264Z,40.70
2022-11-29T12:20:53.207Z,50.90
2022-11-29T12:21:53.496Z,46.30
2022-11-29T12:22:53.285Z,48.90
2022-11-29T12:23:53.115Z,38.90
2022-11-29T12:24:53.314Z,42.70
2022-11-29T12:25:53.238Z,48.90
2022-11-29T12:26:58.267Z,41.90
2022-11-29T12:27:53.333Z,39.30
2022-11-29T12:28:53.554Z,40.50
2022-11-29T12:29:53.123Z,42.00
2022-11-29T12:30:53.185Z,42.40
2022-11-29T12:31:53.753Z,45.20
2022-11-29T12:32:53.783Z,44.50
2022-11-29T12:33:53.153Z,43.80
2022-11-29T12:34:53.172Z,39.90
2022-11-29T12:35:53.172Z,36.40
2022-11-29T12:36:53.174Z,40.60
2022-11-29T12:37:53.186Z,43.70
2022-11-29T12:38:53.200Z,42.20
2022-11-29T12:39:53.412Z,41.60
2022-11-29T12:40:53.409Z,45.70
2022-11-29T12:41:54.331Z,40.40
2022-11-29T12:42:53.023Z,37.00
2022-11-29T12:43:53.441Z,40.10
2022-11-29T12:44:53.642Z,37.90
2022-11-29T12:45:53.641Z,43.90
2022-11-29T12:46:57.965Z,48.40
2022-11-29T12:47:53.705Z,40.10
2022-11-29T12:48:53.071Z,39.20
2022-11-29T12:49:52.967Z,39.30
2022-11-29T12:50:53.083Z,35.00
2022-11-29T12:51:53.090Z,34.90
2022-11-29T12:52:53.282Z,39.00
2022-11-29T12:53:52.920Z,41.20
2022-11-29T12:54:52.919Z,36.70
2022-11-29T12:55:52.910Z,38.30